createdAt,value
2018-08-09T00:00:32.695Z,4.20
2018-08-09T00:01:32.739Z,4.20
2018-08-09T00:02:32.673Z,3.90
2018-08-09T00:03:32.717Z,3.90
2018-08-09T00:04:32.655Z,4.20
2018-08-09T00:05:32.671Z,3.70
2018-08-09T00:06:32.640Z,4.10
2018-08-09T00:07:32.627Z,3.70
2018-08-09T00:08:32.611Z,3.90
2018-08-09T00:09:32.624Z,3.90
2018-08-09T00:10:32.605Z,3.60
2018-08-09T00:11:32.585Z,3.90
2018-08-09T00:12:32.566Z,3.80
2018-08-09T00:13:32.568Z,4.10
2018-08-09T00:14:32.570Z,3.90
2018-08-09T00:15:32.546Z,3.90
2018-08-09T00:16:32.534Z,3.90
2018-08-09T00:17:32.513Z,4.10
2018-08-09T00:18:32.503Z,4.00
2018-08-09T00:19:32.527Z,4.00
2018-08-09T00:20:32.483Z,4.00
2018-08-09T00:21:32.494Z,3.90
2018-08-09T00:22:32.462Z,4.20
2018-08-09T00:23:32.451Z,3.70
2018-08-09T00:24:32.439Z,3.80
2018-08-09T00:25:32.454Z,3.80
2018-08-09T00:26:32.419Z,4.00
2018-08-09T00:27:32.410Z,4.00
2018-08-09T00:28:32.396Z,3.70
2018-08-09T00:29:32.386Z,4.00
2018-08-09T00:30:32.406Z,4.00
2018-08-09T00:31:32.379Z,4.10
2018-08-09T00:32:32.356Z,3.70
2018-08-09T00:33:32.346Z,4.00
2018-08-09T00:34:32.333Z,4.00
2018-08-09T00:35:32.324Z,3.70
2018-08-09T00:36:32.335Z,4.00
2018-08-09T00:37:32.301Z,4.10
2018-08-09T00:38:32.290Z,4.10
2018-08-09T00:39:32.282Z,3.80
2018-08-09T00:40:32.269Z,3.60
2018-08-09T00:41:32.308Z,4.40
2018-08-09T00:42:32.252Z,3.70
2018-08-09T00:43:32.237Z,4.10
2018-08-09T00:44:32.243Z,3.70
2018-08-09T00:45:32.215Z,4.10
2018-08-09T00:46:32.228Z,4.00
2018-08-09T00:47:32.198Z,3.80
2018-08-09T00:48:32.183Z,3.80
2018-08-09T00:49:32.174Z,3.80
2018-08-09T00:50:32.162Z,3.80
2018-08-09T00:51:32.187Z,4.10
2018-08-09T00:52:32.140Z,4.00
2018-08-09T00:53:32.132Z,3.90
2018-08-09T00:54:32.136Z,4.30
2018-08-09T00:55:32.107Z,3.90
2018-08-09T00:56:32.098Z,3.70
2018-08-09T00:57:32.109Z,4.00
2018-08-09T00:58:32.077Z,4.20
2018-08-09T00:59:32.067Z,3.90
2018-08-09T01:00:32.061Z,4.30
2018-08-09T01:01:32.049Z,4.10
2018-08-09T01:02:32.064Z,4.20
2018-08-09T01:03:32.023Z,3.80
2018-08-09T01:04:32.014Z,4.00
2018-08-09T01:05:32.004Z,4.50
2018-08-09T01:06:31.989Z,3.80
2018-08-09T01:07:31.988Z,4.30
2018-08-09T01:08:31.990Z,4.50
2018-08-09T01:09:31.957Z,4.00
2018-08-09T01:10:31.947Z,4.00
2018-08-09T01:11:31.936Z,4.30
2018-08-09T01:12:31.925Z,4.20
2018-08-09T01:13:31.937Z,3.90
2018-08-09T01:14:31.905Z,4.00
2018-08-09T01:15:31.892Z,4.50
2018-08-09T01:16:31.880Z,4.10
2018-08-09T01:17:31.885Z,4.20
2018-08-09T01:18:31.886Z,4.50
2018-08-09T01:19:31.849Z,4.40
2018-08-09T01:20:31.838Z,4.10
2018-08-09T01:21:31.829Z,3.80
2018-08-09T01:22:31.819Z,4.10
2018-08-09T01:23:31.841Z,4.10
2018-08-09T01:24:31.794Z,4.00
2018-08-09T01:25:31.784Z,4.30
2018-08-09T01:26:31.773Z,3.90
2018-08-09T01:27:31.763Z,3.70
2018-08-09T01:28:31.750Z,4.20
2018-08-09T01:29:31.765Z,4.30
2018-08-09T01:30:31.736Z,4.00
2018-08-09T01:31:31.721Z,4.00
2018-08-09T01:32:31.709Z,4.60
2018-08-09T01:33:31.702Z,4.00
2018-08-09T01:34:31.727Z,3.70
2018-08-09T01:35:31.742Z,3.70
2018-08-09T01:36:31.890Z,4.00
2018-08-09T01:37:31.658Z,4.10
2018-08-09T01:38:31.643Z,3.60
2018-08-09T01:39:31.633Z,3.70
2018-08-09T01:40:31.663Z,3.70
2018-08-09T01:41:31.612Z,3.80
2018-08-09T01:42:31.600Z,4.00
2018-08-09T01:43:31.590Z,3.60
2018-08-09T01:44:31.579Z,3.70
2018-08-09T01:45:31.591Z,3.80
2018-08-09T01:46:31.558Z,3.70
2018-08-09T01:47:31.546Z,3.30
2018-08-09T01:48:31.535Z,3.70
2018-08-09T01:49:31.524Z,3.90
2018-08-09T01:50:31.547Z,4.10
2018-08-09T01:51:31.505Z,3.50
2018-08-09T01:52:31.492Z,3.70
2018-08-09T01:53:31.480Z,4.10
2018-08-09T01:54:31.471Z,3.60
2018-08-09T01:55:31.482Z,3.80
2018-08-09T01:56:31.448Z,3.80
2018-08-09T01:57:31.438Z,3.80
2018-08-09T01:58:31.428Z,3.80
2018-08-09T01:59:31.419Z,3.60
2018-08-09T02:00:31.437Z,3.50
2018-08-09T02:01:31.394Z,4.00
2018-08-09T02:02:31.383Z,3.70
2018-08-09T02:03:31.379Z,4.40
2018-08-09T02:04:31.363Z,3.50
2018-08-09T02:05:31.351Z,4.10
2018-08-09T02:06:31.367Z,3.70
2018-08-09T02:07:31.331Z,3.70
2018-08-09T02:08:31.319Z,3.70
2018-08-09T02:09:31.311Z,3.80
2018-08-09T02:10:31.297Z,3.80
2018-08-09T02:11:31.323Z,3.80
2018-08-09T02:12:31.275Z,3.90
2018-08-09T02:13:31.281Z,4.10
2018-08-09T02:14:31.253Z,4.10
2018-08-09T02:15:31.248Z,4.20
2018-08-09T02:16:31.279Z,3.80
2018-08-09T02:17:31.222Z,4.00
2018-08-09T02:18:31.218Z,4.00
2018-08-09T02:19:31.199Z,3.80
2018-08-09T02:20:31.191Z,3.90
2018-08-09T02:21:31.180Z,3.80
2018-08-09T02:22:31.195Z,3.90
2018-08-09T02:23:31.157Z,3.70
2018-08-09T02:24:31.147Z,3.90
2018-08-09T02:25:31.140Z,3.60
2018-08-09T02:26:31.148Z,3.50
2018-08-09T02:27:31.144Z,4.20
2018-08-09T02:28:31.103Z,3.50
2018-08-09T02:29:31.094Z,3.80
2018-08-09T02:30:31.084Z,3.90
2018-08-09T02:31:31.072Z,3.70
2018-08-09T02:32:31.108Z,4.10
2018-08-09T02:33:31.064Z,4.10
2018-08-09T02:34:31.040Z,3.70
2018-08-09T02:35:31.029Z,3.80
2018-08-09T02:36:31.042Z,3.80
2018-08-09T02:37:31.006Z,3.70
2018-08-09T02:38:31.025Z,3.60
2018-08-09T02:39:30.988Z,3.80
2018-08-09T02:40:30.977Z,3.90
2018-08-09T02:41:30.965Z,4.00
2018-08-09T02:42:30.959Z,3.70
2018-08-09T02:43:30.967Z,3.80
2018-08-09T02:44:30.933Z,3.70
2018-08-09T02:45:30.924Z,4.00
2018-08-09T02:46:30.911Z,4.00
2018-08-09T02:47:30.901Z,4.10
2018-08-09T02:48:30.914Z,3.50
2018-08-09T02:49:30.895Z,3.80
2018-08-09T02:50:30.870Z,3.90
2018-08-09T02:51:30.858Z,3.80
2018-08-09T02:52:30.848Z,3.60
2018-08-09T02:53:30.867Z,3.70
2018-08-09T02:54:30.826Z,3.60
2018-08-09T02:55:30.816Z,3.60
2018-08-09T02:56:30.804Z,3.90
2018-08-09T02:57:30.795Z,3.60
2018-08-09T02:58:30.782Z,3.90
2018-08-09T02:59:30.812Z,3.70
2018-08-09T03:00:30.762Z,3.70
2018-08-09T03:01:30.752Z,3.90
2018-08-09T03:02:30.740Z,3.70
2018-08-09T03:03:30.732Z,4.40
2018-08-09T03:04:30.745Z,4.10
2018-08-09T03:05:30.709Z,4.00
2018-08-09T03:06:30.698Z,3.70
2018-08-09T03:07:30.687Z,4.00
2018-08-09T03:08:30.676Z,4.20
2018-08-09T03:09:30.706Z,3.80
2018-08-09T03:10:30.656Z,3.60
2018-08-09T03:11:30.645Z,4.00
2018-08-09T03:12:30.637Z,3.70
2018-08-09T03:13:30.623Z,3.90
2018-08-09T03:14:30.612Z,3.60
2018-08-09T03:15:30.627Z,4.00
2018-08-09T03:16:30.594Z,4.10
2018-08-09T03:17:30.580Z,4.00
2018-08-09T03:18:30.572Z,3.90
2018-08-09T03:19:30.558Z,4.00
2018-08-09T03:20:30.578Z,3.80
2018-08-09T03:21:30.537Z,3.90
2018-08-09T03:22:30.532Z,3.60
2018-08-09T03:23:30.521Z,3.90
2018-08-09T03:24:30.629Z,4.00
2018-08-09T03:25:30.567Z,4.10
2018-08-09T03:26:30.487Z,4.30
2018-08-09T03:27:30.472Z,4.00
2018-08-09T03:28:30.463Z,3.70
2018-08-09T03:29:30.451Z,4.20
2018-08-09T03:30:30.442Z,3.90
2018-08-09T03:31:30.454Z,4.10
2018-08-09T03:32:30.442Z,4.10
2018-08-09T03:33:30.410Z,3.90
2018-08-09T03:34:30.398Z,3.60
2018-08-09T03:35:30.388Z,3.80
2018-08-09T03:36:30.400Z,3.80
2018-08-09T03:37:30.369Z,3.70
2018-08-09T03:38:30.357Z,3.70
2018-08-09T03:39:30.346Z,3.80
2018-08-09T03:40:30.334Z,3.70
2018-08-09T03:41:30.350Z,3.70
2018-08-09T03:42:30.313Z,3.60
2018-08-09T03:43:30.302Z,3.90
2018-08-09T03:44:30.314Z,4.00
2018-08-09T03:45:30.285Z,3.60
2018-08-09T03:46:30.308Z,4.10
2018-08-09T03:47:30.265Z,4.10
2018-08-09T03:48:30.249Z,4.00
2018-08-09T03:49:30.238Z,3.70
2018-08-09T03:50:30.228Z,4.00
2018-08-09T03:51:30.217Z,4.20
2018-08-09T03:52:30.244Z,4.00
2018-08-09T03:53:30.818Z,3.90
2018-08-09T03:54:30.187Z,4.20
2018-08-09T03:55:30.201Z,3.90
2018-08-09T03:56:30.186Z,3.60
2018-08-09T03:57:30.235Z,3.70
2018-08-09T03:58:30.143Z,3.80
2018-08-09T03:59:30.147Z,4.10
2018-08-09T04:00:30.124Z,3.70
2018-08-09T04:01:30.111Z,3.80
2018-08-09T04:02:30.141Z,3.80
2018-08-09T04:03:30.091Z,3.50
2018-08-09T04:04:30.080Z,3.60
2018-08-09T04:05:30.071Z,3.70
2018-08-09T04:06:30.062Z,4.20
2018-08-09T04:07:30.048Z,4.00
2018-08-09T04:08:30.084Z,3.80
2018-08-09T04:09:30.069Z,3.60
2018-08-09T04:10:30.022Z,3.70
2018-08-09T04:11:30.009Z,3.20
2018-08-09T04:12:29.996Z,3.40
2018-08-09T04:13:30.009Z,3.50
2018-08-09T04:14:29.973Z,3.50
2018-08-09T04:15:29.963Z,3.60
2018-08-09T04:16:29.950Z,3.60
2018-08-09T04:17:29.940Z,4.00
2018-08-09T04:18:29.974Z,3.60
2018-08-09T04:19:29.919Z,3.70
2018-08-09T04:20:29.912Z,3.90
2018-08-09T04:21:29.898Z,3.70
2018-08-09T04:22:29.889Z,3.60
2018-08-09T04:23:29.876Z,3.70
2018-08-09T04:24:29.890Z,3.90
2018-08-09T04:25:29.863Z,3.80
2018-08-09T04:26:29.899Z,4.30
2018-08-09T04:27:29.834Z,3.80
2018-08-09T04:28:29.824Z,3.70
2018-08-09T04:29:29.836Z,3.60
2018-08-09T04:30:29.804Z,3.50
2018-08-09T04:31:29.799Z,3.70
2018-08-09T04:32:29.780Z,3.80
2018-08-09T04:33:29.768Z,3.80
2018-08-09T04:34:29.781Z,3.70
2018-08-09T04:35:29.755Z,3.90
2018-08-09T04:36:29.740Z,3.90
2018-08-09T04:37:29.728Z,3.70
2018-08-09T04:38:29.714Z,3.80
2018-08-09T04:39:29.733Z,4.00
2018-08-09T04:40:29.692Z,4.20
2018-08-09T04:41:29.693Z,4.10
2018-08-09T04:42:29.671Z,4.10
2018-08-09T04:43:29.660Z,3.80
2018-08-09T04:44:29.649Z,3.60
2018-08-09T04:45:29.662Z,3.60
2018-08-09T04:46:29.627Z,3.80
2018-08-09T04:47:29.617Z,3.80
2018-08-09T04:48:29.607Z,3.70
2018-08-09T04:49:29.595Z,3.90
2018-08-09T04:50:29.607Z,4.00
2018-08-09T04:51:29.572Z,3.50
2018-08-09T04:52:29.566Z,4.10
2018-08-09T04:53:29.552Z,3.70
2018-08-09T04:54:29.547Z,3.90
2018-08-09T04:55:29.563Z,3.60
2018-08-09T04:56:29.519Z,3.80
2018-08-09T04:57:29.511Z,4.00
2018-08-09T04:58:29.588Z,3.80
2018-08-09T04:59:29.486Z,3.70
2018-08-09T05:00:29.479Z,3.70
2018-08-09T05:01:29.488Z,3.60
2018-08-09T05:02:29.454Z,4.10
2018-08-09T05:03:29.442Z,3.50
2018-08-09T05:04:29.464Z,3.60
2018-08-09T05:05:29.420Z,3.80
2018-08-09T05:06:29.432Z,3.70
2018-08-09T05:07:29.399Z,3.50
2018-08-09T05:08:29.389Z,3.80
2018-08-09T05:09:29.377Z,3.80
2018-08-09T05:10:29.367Z,3.80
2018-08-09T05:11:29.383Z,4.10
2018-08-09T05:12:29.346Z,3.80
2018-08-09T05:13:29.335Z,3.60
2018-08-09T05:14:29.328Z,3.80
2018-08-09T05:15:29.313Z,3.80
2018-08-09T05:16:29.334Z,3.80
2018-08-09T05:17:29.296Z,3.80
2018-08-09T05:18:29.282Z,4.10
2018-08-09T05:19:29.291Z,3.60
2018-08-09T05:20:29.260Z,3.40
2018-08-09T05:21:29.248Z,3.90
2018-08-09T05:22:29.261Z,3.70
2018-08-09T05:23:29.228Z,3.80
2018-08-09T05:24:29.220Z,3.60
2018-08-09T05:25:29.205Z,4.10
2018-08-09T05:26:29.251Z,3.90
2018-08-09T05:27:29.254Z,3.90
2018-08-09T05:28:29.172Z,3.90
2018-08-09T05:29:29.162Z,3.70
2018-08-09T05:30:29.150Z,3.90
2018-08-09T05:31:29.139Z,4.00
2018-08-09T05:32:29.160Z,4.10
2018-08-09T05:33:29.117Z,4.00
2018-08-09T05:34:29.109Z,4.00
2018-08-09T05:35:29.096Z,4.10
2018-08-09T05:36:29.086Z,3.70
2018-08-09T05:37:29.099Z,4.10
2018-08-09T05:38:29.088Z,3.70
2018-08-09T05:39:29.053Z,4.30
2018-08-09T05:40:29.047Z,4.20
2018-08-09T05:41:29.036Z,4.30
2018-08-09T05:42:29.025Z,4.20
2018-08-09T05:43:29.034Z,4.00
2018-08-09T05:44:28.999Z,4.10
2018-08-09T05:45:28.989Z,4.20
2018-08-09T05:46:28.979Z,4.40
2018-08-09T05:47:28.971Z,4.40
2018-08-09T05:48:28.980Z,4.50
2018-08-09T05:49:28.947Z,4.50
2018-08-09T05:50:28.939Z,4.40
2018-08-09T05:51:28.931Z,4.70
2018-08-09T05:52:28.916Z,4.40
2018-08-09T05:53:28.932Z,4.30
2018-08-09T05:54:28.893Z,4.90
2018-08-09T05:55:28.883Z,4.30
2018-08-09T05:56:28.876Z,4.60
2018-08-09T05:57:28.861Z,4.80
2018-08-09T05:58:28.950Z,3.90
2018-08-09T05:59:28.840Z,4.70
2018-08-09T06:00:28.850Z,4.70
2018-08-09T06:01:28.818Z,4.50
2018-08-09T06:02:28.807Z,4.60
2018-08-09T06:03:28.796Z,4.50
2018-08-09T06:04:28.812Z,4.50
2018-08-09T06:05:28.779Z,4.40
2018-08-09T06:06:28.765Z,4.50
2018-08-09T06:07:28.754Z,4.70
2018-08-09T06:08:28.745Z,4.90
2018-08-09T06:09:28.757Z,4.30
2018-08-09T06:10:28.722Z,4.70
2018-08-09T06:11:28.714Z,4.30
2018-08-09T06:12:28.702Z,4.30
2018-08-09T06:13:28.728Z,4.40
2018-08-09T06:14:28.728Z,4.30
2018-08-09T06:15:28.670Z,4.40
2018-08-09T06:16:28.659Z,4.30
2018-08-09T06:17:28.648Z,4.40
2018-08-09T06:18:28.640Z,4.50
2018-08-09T06:19:28.627Z,4.60
2018-08-09T06:20:28.639Z,4.20
2018-08-09T06:21:28.605Z,4.60
2018-08-09T06:22:28.594Z,4.70
2018-08-09T06:23:28.595Z,4.40
2018-08-09T06:24:28.575Z,4.20
2018-08-09T06:25:28.588Z,4.60
2018-08-09T06:26:28.694Z,4.50
2018-08-09T06:27:28.540Z,4.50
2018-08-09T06:28:28.582Z,4.60
2018-08-09T06:29:28.520Z,4.40
2018-08-09T06:30:28.561Z,4.80
2018-08-09T06:31:28.502Z,4.50
2018-08-09T06:32:28.491Z,4.10
2018-08-09T06:33:28.494Z,4.70
2018-08-09T06:34:28.466Z,5.00
2018-08-09T06:35:28.459Z,5.10
2018-08-09T06:36:28.490Z,5.20
2018-08-09T06:37:28.434Z,4.30
2018-08-09T06:38:28.423Z,4.40
2018-08-09T06:39:28.413Z,4.70
2018-08-09T06:40:28.401Z,4.70
2018-08-09T06:41:28.416Z,4.70
2018-08-09T06:42:28.380Z,5.00
2018-08-09T06:43:28.369Z,5.00
2018-08-09T06:44:28.371Z,4.50
2018-08-09T06:45:28.349Z,5.00
2018-08-09T06:46:28.378Z,4.80
2018-08-09T06:47:28.330Z,4.80
2018-08-09T06:48:28.321Z,4.60
2018-08-09T06:49:28.305Z,4.40
2018-08-09T06:50:28.296Z,5.00
2018-08-09T06:51:28.314Z,5.20
2018-08-09T06:52:28.274Z,4.70
2018-08-09T06:53:28.263Z,4.60
2018-08-09T06:54:28.253Z,5.00
2018-08-09T06:55:28.242Z,5.00
2018-08-09T06:56:28.232Z,4.80
2018-08-09T06:57:28.245Z,4.90
2018-08-09T06:58:28.212Z,4.60
2018-08-09T06:59:28.205Z,5.30
2018-08-09T07:00:28.209Z,5.10
2018-08-09T07:01:28.180Z,5.10
2018-08-09T07:02:28.198Z,5.10
2018-08-09T07:03:28.166Z,5.20
2018-08-09T07:04:28.145Z,4.90
2018-08-09T07:05:28.138Z,4.90
2018-08-09T07:06:28.124Z,5.10
2018-08-09T07:07:28.153Z,5.30
2018-08-09T07:08:28.103Z,5.00
2018-08-09T07:09:28.106Z,5.60
2018-08-09T07:10:28.083Z,5.40
2018-08-09T07:11:28.070Z,5.00
2018-08-09T07:12:28.060Z,5.20
2018-08-09T07:13:28.081Z,5.00
2018-08-09T07:14:28.037Z,5.30
2018-08-09T07:15:28.030Z,5.40
2018-08-09T07:16:28.017Z,4.60
2018-08-09T07:17:28.005Z,4.20
2018-08-09T07:18:28.024Z,5.00
2018-08-09T07:19:27.984Z,4.90
2018-08-09T07:20:28.028Z,4.90
2018-08-09T07:21:27.962Z,5.00
2018-08-09T07:22:27.960Z,5.40
2018-08-09T07:23:27.941Z,5.10
2018-08-09T07:24:27.956Z,5.30
2018-08-09T07:25:27.919Z,5.10
2018-08-09T07:26:27.960Z,5.20
2018-08-09T07:27:27.898Z,5.40
2018-08-09T07:28:27.894Z,5.40
2018-08-09T07:29:27.904Z,5.40
2018-08-09T07:30:27.868Z,5.80
2018-08-09T07:31:27.856Z,5.40
2018-08-09T07:32:27.857Z,5.40
2018-08-09T07:33:27.835Z,5.60
2018-08-09T07:34:27.855Z,5.60
2018-08-09T07:35:27.820Z,5.60
2018-08-09T07:36:27.829Z,5.50
2018-08-09T07:37:27.794Z,5.70
2018-08-09T07:38:27.783Z,5.20
2018-08-09T07:39:27.882Z,5.30
2018-08-09T07:40:27.786Z,5.30
2018-08-09T07:41:27.751Z,5.20
2018-08-09T07:42:27.740Z,5.50
2018-08-09T07:43:27.730Z,4.90
2018-08-09T07:44:27.719Z,5.10
2018-08-09T07:45:27.756Z,5.20
2018-08-09T07:46:27.701Z,5.10
2018-08-09T07:47:27.687Z,5.60
2018-08-09T07:48:27.721Z,5.50
2018-08-09T07:49:27.673Z,5.10
2018-08-09T07:50:27.683Z,5.30
2018-08-09T07:51:27.670Z,5.00
2018-08-09T07:52:27.638Z,5.60
2018-08-09T07:53:27.625Z,5.00
2018-08-09T07:54:27.735Z,4.90
2018-08-09T07:55:27.602Z,5.30
2018-08-09T07:56:27.621Z,4.80
2018-08-09T07:57:27.593Z,5.70
2018-08-09T07:58:27.571Z,5.40
2018-08-09T07:59:27.561Z,5.50
2018-08-09T08:00:27.552Z,5.30
2018-08-09T08:01:27.567Z,5.10
2018-08-09T08:02:27.531Z,5.40
2018-08-09T08:03:27.529Z,5.50
2018-08-09T08:04:27.515Z,5.30
2018-08-09T08:05:27.504Z,5.00
2018-08-09T08:06:27.525Z,5.40
2018-08-09T08:07:27.474Z,5.40
2018-08-09T08:08:27.512Z,5.40
2018-08-09T08:09:27.462Z,5.60
2018-08-09T08:10:27.444Z,5.20
2018-08-09T08:11:27.435Z,5.60
2018-08-09T08:12:27.446Z,5.70
2018-08-09T08:13:27.409Z,5.30
2018-08-09T08:14:27.398Z,5.40
2018-08-09T08:15:27.388Z,5.60
2018-08-09T08:16:27.377Z,6.00
2018-08-09T08:17:27.390Z,5.20
2018-08-09T08:18:27.355Z,5.60
2018-08-09T08:19:27.345Z,5.70
2018-08-09T08:20:27.333Z,5.80
2018-08-09T08:21:27.324Z,5.10
2018-08-09T08:22:27.348Z,5.70
2018-08-09T08:23:27.301Z,5.80
2018-08-09T08:24:27.297Z,5.30
2018-08-09T08:25:27.281Z,5.70
2018-08-09T08:26:27.267Z,5.80
2018-08-09T08:27:27.280Z,5.40
2018-08-09T08:28:27.296Z,5.80
2018-08-09T08:29:27.237Z,5.30
2018-08-09T08:30:27.225Z,5.80
2018-08-09T08:31:27.214Z,5.50
2018-08-09T08:32:27.203Z,5.70
2018-08-09T08:33:27.220Z,6.10
2018-08-09T08:34:27.210Z,5.80
2018-08-09T08:35:27.170Z,5.90
2018-08-09T08:36:27.187Z,5.10
2018-08-09T08:37:27.149Z,5.70
2018-08-09T08:38:27.161Z,5.60
2018-08-09T08:39:27.128Z,5.20
2018-08-09T08:40:27.116Z,6.00
2018-08-09T08:41:27.162Z,4.90
2018-08-09T08:42:27.094Z,5.70
2018-08-09T08:43:27.113Z,5.60
2018-08-09T08:44:27.095Z,5.40
2018-08-09T08:45:27.061Z,5.60
2018-08-09T08:46:27.051Z,5.70
2018-08-09T08:47:27.065Z,6.20
2018-08-09T08:48:27.034Z,5.80
2018-08-09T08:49:27.046Z,5.70
2018-08-09T08:50:27.008Z,5.50
2018-08-09T08:51:27.001Z,6.00
2018-08-09T08:52:26.989Z,5.70
2018-08-09T08:53:26.979Z,5.70
2018-08-09T08:54:27.017Z,5.80
2018-08-09T08:55:26.957Z,4.80
2018-08-09T08:56:26.945Z,5.30
2018-08-09T08:57:26.935Z,5.30
2018-08-09T08:58:26.925Z,5.10
2018-08-09T08:59:26.942Z,5.70
2018-08-09T09:00:26.907Z,5.50
2018-08-09T09:01:26.899Z,4.70
2018-08-09T09:02:26.882Z,5.10
2018-08-09T09:03:26.891Z,5.60
2018-08-09T09:04:26.919Z,5.50
2018-08-09T09:05:26.881Z,4.90
2018-08-09T09:06:26.840Z,5.00
2018-08-09T09:07:26.848Z,5.50
2018-08-09T09:08:26.819Z,4.90
2018-08-09T09:09:26.823Z,5.50
2018-08-09T09:10:26.824Z,4.70
2018-08-09T09:11:26.789Z,4.80
2018-08-09T09:12:26.777Z,4.50
2018-08-09T09:13:26.767Z,4.90
2018-08-09T09:14:26.757Z,4.80
2018-08-09T09:15:26.772Z,4.80
2018-08-09T09:16:26.735Z,5.00
2018-08-09T09:17:26.729Z,5.10
2018-08-09T09:18:26.714Z,5.10
2018-08-09T09:19:26.705Z,5.10
2018-08-09T09:20:26.739Z,5.20
2018-08-09T09:21:26.683Z,5.50
2018-08-09T09:22:26.673Z,5.10
2018-08-09T09:23:26.661Z,4.50
2018-08-09T09:24:26.650Z,4.90
2018-08-09T09:25:26.664Z,5.20
2018-08-09T09:26:26.630Z,4.90
2018-08-09T09:27:26.619Z,5.00
2018-08-09T09:28:26.610Z,5.50
2018-08-09T09:29:26.602Z,5.40
2018-08-09T09:30:26.637Z,5.00
2018-08-09T09:31:26.579Z,4.90
2018-08-09T09:32:26.568Z,5.40
2018-08-09T09:33:26.558Z,5.20
2018-08-09T09:34:26.546Z,5.10
2018-08-09T09:35:26.538Z,4.70
2018-08-09T09:36:26.552Z,5.00
2018-08-09T09:37:26.523Z,5.00
2018-08-09T09:38:26.506Z,5.10
2018-08-09T09:39:26.494Z,4.70
2018-08-09T09:40:26.485Z,5.10
2018-08-09T09:41:26.517Z,4.80
2018-08-09T09:42:26.478Z,4.90
2018-08-09T09:43:26.452Z,5.00
2018-08-09T09:44:26.445Z,4.90
2018-08-09T09:45:26.432Z,5.00
2018-08-09T09:46:26.451Z,5.10
2018-08-09T09:47:26.411Z,5.10
2018-08-09T09:48:26.402Z,5.10
2018-08-09T09:49:26.390Z,4.80
2018-08-09T09:50:26.380Z,4.80
2018-08-09T09:51:26.369Z,5.10
2018-08-09T09:52:26.388Z,5.10
2018-08-09T09:53:26.371Z,5.20
2018-08-09T09:54:26.375Z,5.40
2018-08-09T09:55:26.330Z,5.30
2018-08-09T09:56:26.320Z,5.10
2018-08-09T09:57:26.331Z,5.20
2018-08-09T09:58:26.295Z,5.20
2018-08-09T09:59:26.286Z,4.90
2018-08-09T10:00:26.274Z,5.20
2018-08-09T10:01:26.266Z,4.90
2018-08-09T10:02:26.280Z,5.10
2018-08-09T10:03:26.257Z,5.00
2018-08-09T10:04:26.232Z,5.10
2018-08-09T10:05:26.224Z,5.00
2018-08-09T10:06:26.212Z,5.40
2018-08-09T10:07:26.236Z,5.00
2018-08-09T10:08:26.192Z,5.10
2018-08-09T10:09:26.180Z,4.90
2018-08-09T10:10:26.221Z,5.00
2018-08-09T10:11:26.158Z,4.90
2018-08-09T10:12:26.171Z,5.40
2018-08-09T10:13:26.140Z,5.30
2018-08-09T10:14:26.129Z,5.00
2018-08-09T10:15:26.116Z,4.70
2018-08-09T10:16:26.124Z,5.20
2018-08-09T10:17:26.119Z,5.70
2018-08-09T10:18:26.085Z,5.00
2018-08-09T10:19:26.074Z,4.90
2018-08-09T10:20:26.067Z,5.30
2018-08-09T10:21:26.054Z,5.00
2018-08-09T10:22:26.069Z,5.70
2018-08-09T10:23:26.037Z,5.30
2018-08-09T10:24:26.023Z,5.20
2018-08-09T10:25:26.012Z,5.10
2018-08-09T10:26:26.017Z,5.40
2018-08-09T10:27:26.017Z,4.90
2018-08-09T10:28:25.983Z,5.30
2018-08-09T10:29:25.971Z,5.30
2018-08-09T10:30:25.965Z,5.10
2018-08-09T10:31:25.951Z,5.20
2018-08-09T10:32:25.968Z,5.10
2018-08-09T10:33:25.931Z,4.80
2018-08-09T10:34:25.919Z,5.20
2018-08-09T10:35:25.923Z,5.00
2018-08-09T10:36:25.922Z,5.10
2018-08-09T10:37:25.889Z,5.40
2018-08-09T10:38:25.926Z,5.60
2018-08-09T10:39:25.870Z,5.00
2018-08-09T10:40:25.857Z,5.30
2018-08-09T10:41:25.848Z,5.10
2018-08-09T10:42:25.842Z,5.00
2018-08-09T10:43:25.854Z,5.30
2018-08-09T10:44:25.818Z,4.70
2018-08-09T10:45:25.812Z,4.90
2018-08-09T10:46:25.796Z,5.10
2018-08-09T10:47:25.788Z,5.20
2018-08-09T10:48:25.805Z,4.90
2018-08-09T10:49:25.799Z,4.90
2018-08-09T10:50:25.755Z,5.00
2018-08-09T10:51:25.779Z,4.80
2018-08-09T10:52:25.744Z,4.80
2018-08-09T10:53:25.726Z,5.00
2018-08-09T10:54:25.740Z,4.80
2018-08-09T10:55:25.705Z,5.00
2018-08-09T10:56:25.700Z,4.90
2018-08-09T10:57:25.691Z,4.30
2018-08-09T10:58:25.675Z,4.50
2018-08-09T10:59:25.728Z,5.20
2018-08-09T11:00:25.654Z,5.10
2018-08-09T11:01:25.644Z,5.30
2018-08-09T11:02:25.640Z,5.00
2018-08-09T11:03:25.624Z,5.40
2018-08-09T11:04:25.643Z,4.70
2018-08-09T11:05:25.604Z,4.70
2018-08-09T11:06:25.602Z,5.20
2018-08-09T11:07:25.589Z,5.00
2018-08-09T11:08:25.578Z,4.60
2018-08-09T11:09:25.625Z,4.40
2018-08-09T11:10:25.578Z,4.60
2018-08-09T11:11:25.545Z,4.70
2018-08-09T11:12:25.536Z,4.70
2018-08-09T11:13:25.523Z,4.20
2018-08-09T11:14:25.513Z,4.70
2018-08-09T11:15:25.527Z,4.80
2018-08-09T11:16:25.491Z,4.80
2018-08-09T11:17:25.481Z,4.70
2018-08-09T11:18:25.472Z,4.30
2018-08-09T11:19:25.720Z,4.80
2018-08-09T11:20:25.474Z,4.20
2018-08-09T11:21:25.453Z,4.60
2018-08-09T11:22:25.452Z,4.60
2018-08-09T11:23:25.420Z,4.40
2018-08-09T11:24:25.414Z,4.60
2018-08-09T11:25:25.437Z,4.70
2018-08-09T11:26:25.406Z,4.40
2018-08-09T11:27:25.381Z,4.60
2018-08-09T11:28:25.377Z,4.80
2018-08-09T11:29:25.375Z,4.20
2018-08-09T11:30:25.367Z,4.50
2018-08-09T11:31:25.372Z,4.50
2018-08-09T11:32:25.354Z,4.40
2018-08-09T11:33:25.327Z,4.30
2018-08-09T11:34:25.318Z,4.60
2018-08-09T11:35:25.304Z,4.40
2018-08-09T11:36:25.319Z,4.30
2018-08-09T11:37:25.285Z,4.80
2018-08-09T11:38:25.285Z,4.50
2018-08-09T11:39:25.267Z,4.50
2018-08-09T11:40:25.260Z,4.40
2018-08-09T11:41:25.280Z,4.00
2018-08-09T11:42:25.260Z,4.30
2018-08-09T11:43:25.230Z,4.50
2018-08-09T11:44:25.222Z,4.40
2018-08-09T11:45:25.205Z,4.30
2018-08-09T11:46:25.198Z,4.80
2018-08-09T11:47:25.209Z,4.30
2018-08-09T11:48:25.189Z,4.60
2018-08-09T11:49:25.230Z,4.30
2018-08-09T11:50:25.170Z,4.60
2018-08-09T11:51:25.147Z,4.40
2018-08-09T11:52:25.193Z,4.10
2018-08-09T11:53:25.139Z,4.40
2018-08-09T11:54:25.166Z,4.40
2018-08-09T11:55:25.126Z,4.40
2018-08-09T11:56:25.144Z,4.20
2018-08-09T11:57:25.084Z,4.10
2018-08-09T11:58:25.106Z,4.10
2018-08-09T11:59:25.068Z,4.20
2018-08-09T12:00:25.056Z,4.40
2018-08-09T12:01:25.089Z,4.30
2018-08-09T12:02:25.033Z,4.30
2018-08-09T12:03:25.092Z,4.10
2018-08-09T12:04:25.073Z,4.10
2018-08-09T12:05:25.022Z,4.40
2018-08-09T12:06:24.994Z,4.60
2018-08-09T12:07:24.989Z,4.40
2018-08-09T12:08:24.996Z,4.60
2018-08-09T12:09:24.983Z,4.20
2018-08-09T12:10:24.952Z,4.70
2018-08-09T12:11:24.957Z,4.60
2018-08-09T12:12:24.938Z,4.30
2018-08-09T12:13:24.992Z,4.50
2018-08-09T12:14:24.930Z,4.70
2018-08-09T12:15:24.950Z,4.70
2018-08-09T12:16:24.890Z,4.40
2018-08-09T12:17:24.885Z,4.70
2018-08-09T12:18:24.916Z,4.90
2018-08-09T12:19:24.893Z,4.90
2018-08-09T12:20:24.868Z,4.90
2018-08-09T12:21:24.851Z,4.60
2018-08-09T12:22:24.831Z,5.20
2018-08-09T12:23:24.823Z,4.90
2018-08-09T12:24:24.893Z,5.10
2018-08-09T12:25:24.801Z,5.40
2018-08-09T12:26:24.789Z,5.30
2018-08-09T12:27:24.783Z,5.40
2018-08-09T12:28:24.796Z,5.40
2018-08-09T12:29:24.796Z,6.20
2018-08-09T12:30:24.759Z,6.50
2018-08-09T12:31:24.885Z,3.40
2018-08-09T12:32:24.734Z,2.80
2018-08-09T12:33:24.758Z,2.70
2018-08-09T12:34:24.707Z,2.20
2018-08-09T12:35:24.721Z,3.00
2018-08-09T12:36:24.750Z,2.70
2018-08-09T12:37:24.751Z,3.70
2018-08-09T12:38:24.687Z,4.30
2018-08-09T12:39:24.653Z,4.20
2018-08-09T12:40:24.728Z,4.50
2018-08-09T12:41:24.825Z,4.10
2018-08-09T12:42:24.840Z,3.80
2018-08-09T12:43:24.705Z,4.10
2018-08-09T12:44:24.608Z,4.20
2018-08-09T12:45:24.684Z,4.40
2018-08-09T12:46:24.578Z,4.50
2018-08-09T12:47:24.803Z,3.40
2018-08-09T23:06:32.939Z,0.70
2018-08-09T23:07:32.905Z,0.70
2018-08-09T23:08:32.933Z,0.70
2018-08-09T23:09:32.890Z,0.80
2018-08-09T23:10:32.921Z,0.70
2018-08-09T23:11:32.883Z,0.70
2018-08-09T23:12:32.852Z,0.80
2018-08-09T23:13:32.877Z,0.70
2018-08-09T23:14:32.874Z,0.70
2018-08-09T23:15:32.878Z,0.60
2018-08-09T23:16:32.825Z,0.80
2018-08-09T23:17:32.853Z,0.70
2018-08-09T23:18:32.851Z,0.70
2018-08-09T23:19:32.843Z,0.60
2018-08-09T23:20:32.844Z,0.90
2018-08-09T23:21:32.775Z,0.80
2018-08-09T23:22:32.766Z,0.60
2018-08-09T23:23:32.825Z,0.60
2018-08-09T23:24:32.785Z,0.60
2018-08-09T23:25:32.808Z,0.70
2018-08-09T23:26:32.718Z,0.60
2018-08-09T23:27:32.719Z,0.60
2018-08-09T23:28:32.899Z,0.60
2018-08-09T23:29:32.706Z,0.60
2018-08-09T23:30:32.760Z,0.70
2018-08-09T23:31:32.687Z,0.60
2018-08-09T23:32:32.681Z,0.70
2018-08-09T23:33:32.633Z,0.60
2018-08-09T23:34:32.629Z,0.70
2018-08-09T23:35:32.822Z,0.60
2018-08-09T23:36:32.626Z,0.70